Time;durP1;ratioP1;P1;durP2;ratioP2;P2;SDS_P1;SDS_P2;PMS_P1;PMS_P2;Temp;Humidity;BMP_temperature;BMP_pressure;BME280_temperature;BME280_humidity;BME280_pressure;Samples;Min_cycle;Max_cycle;Signal;HPM_P1;HPM_P2
2022/03/21 00:02:13;;;;;;;30.23;20.98;;;;;;;6.44;100.00;103051.50;6232687;23;20458;-76
2022/03/21 00:04:42;;;;;;;24.63;19.58;;;;;;;6.41;100.00;103065.34;6212438;23;20150;-76
2022/03/21 00:07:10;;;;;;;29.50;21.98;;;;;;;6.40;100.00;103087.09;6181146;23;20334;-76
2022/03/21 00:09:39;;;;;;;29.92;20.83;;;;;;;6.41;100.00;103074.91;6180891;23;20020;-76
2022/03/21 00:12:08;;;;;;;30.73;21.98;;;;;;;6.41;100.00;103073.19;6245598;23;20446;-76
2022/03/21 00:14:41;;;;;;;30.75;21.83;;;;;;;6.41;100.00;103098.50;6154063;23;20306;-76
2022/03/21 00:17:10;;;;;;;27.50;20.35;;;;;;;6.40;100.00;103087.09;6194424;23;20016;-76
2022/03/21 00:19:38;;;;;;;30.02;20.15;;;;;;;6.39;100.00;103081.75;6164820;23;20362;-76
2022/03/21 00:22:07;;;;;;;25.70;19.63;;;;;;;6.38;100.00;103056.41;6195736;23;20357;-76
2022/03/21 00:24:35;;;;;;;25.73;18.38;;;;;;;6.37;100.00;103060.75;6189212;23;20273;-76
2022/03/21 00:27:05;;;;;;;27.60;20.45;;;;;;;6.38;100.00;103066.88;6157924;23;20020;-76
2022/03/21 00:29:42;;;;;;;26.88;20.52;;;;;;;6.38;100.00;103072.13;6183924;23;20233;-76
2022/03/21 00:32:11;;;;;;;28.25;19.45;;;;;;;6.39;100.00;103076.53;6209364;23;20024;-76
2022/03/21 00:34:40;;;;;;;29.67;19.80;;;;;;;6.39;100.00;103087.00;6156923;23;20150;-76
2022/03/21 00:37:08;;;;;;;30.60;20.17;;;;;;;6.39;100.00;103076.53;6208336;23;20016;-76
2022/03/21 00:39:38;;;;;;;26.60;19.38;;;;;;;6.39;100.00;103087.00;6130781;23;20245;-76
2022/03/21 00:42:10;;;;;;;26.80;20.02;;;;;;;6.39;100.00;103085.31;6211632;23;20027;-76
2022/03/21 00:44:38;;;;;;;30.83;18.75;;;;;;;6.40;100.00;103096.66;6216063;23;20020;-76
2022/03/21 00:47:07;;;;;;;30.17;21.17;;;;;;;6.41;100.00;103106.34;6244167;23;20229;-76
2022/03/21 00:49:36;;;;;;;24.63;18.98;;;;;;;6.39;100.00;103095.78;6181852;23;20205;-76
2022/03/21 00:52:04;;;;;;;29.48;20.55;;;;;;;6.38;100.00;103091.34;6195653;23;20023;-76
2022/03/21 00:54:33;;;;;;;26.52;19.88;;;;;;;6.38;100.00;103099.19;6202934;23;20027;-76
2022/03/21 00:57:02;;;;;;;27.65;20.38;;;;;;;6.38;100.00;103101.81;6245577;23;20027;-76
2022/03/21 00:59:31;;;;;;;26.45;19.60;;;;;;;6.38;100.00;103111.41;6207342;23;20012;-76
2022/03/21 01:01:59;;;;;;;25.45;19.85;;;;;;;6.39;100.00;103105.31;6182890;23;20028;-76
2022/03/21 01:04:28;;;;;;;30.58;21.02;;;;;;;6.38;100.00;103096.56;6181016;23;20047;-76
2022/03/21 01:06:57;;;;;;;30.15;20.73;;;;;;;6.38;100.00;103096.56;6234137;23;20023;-76
2022/03/21 01:09:27;;;;;;;32.35;22.08;;;;;;;6.39;100.00;103092.22;6194815;23;20008;-75
2022/03/21 01:12:00;;;;;;;28.13;19.88;;;;;;;6.38;100.00;103093.06;6210933;23;20031;-76
2022/03/21 01:14:31;;;;;;;;;;;;;;;6.38;100.00;103088.72;6206291;23;20016;-76
2022/03/21 01:16:59;;;;;;;30.10;21.63;;;;;;;6.37;100.00;103093.88;6209380;23;19963;-76
2022/03/21 01:19:30;;;;;;;34.60;21.27;;;;;;;6.35;100.00;103085.94;6216368;23;20012;-76
2022/03/21 01:21:58;;;;;;;29.33;21.63;;;;;;;6.37;100.00;103078.16;6219891;23;20020;-76
2022/03/21 01:24:27;;;;;;;28.30;21.98;;;;;;;6.37;100.00;103080.78;6228643;23;20023;-76
2022/03/21 01:26:55;;;;;;;30.73;22.55;;;;;;;6.37;100.00;103086.94;6193833;23;20068;-76
2022/03/21 01:29:23;;;;;;;35.03;24.15;;;;;;;6.39;100.00;103094.84;6232920;23;20016;-76
2022/03/21 01:31:52;;;;;;;26.17;21.17;;;;;;;6.38;100.00;103098.31;6243738;23;20206;-76
2022/03/21 01:34:20;;;;;;;27.75;21.95;;;;;;;6.38;100.00;103100.91;6208337;23;20012;-76
2022/03/21 01:36:49;;;;;;;32.40;22.48;;;;;;;6.38;100.00;103111.41;6217127;23;20458;-76
2022/03/21 01:39:19;;;;;;;28.05;20.83;;;;;;;6.38;100.00;103109.69;6172903;23;20584;-76
2022/03/21 01:41:48;;;;;;;29.77;20.77;;;;;;;6.39;100.00;103100.09;6241511;23;20370;-76
2022/03/21 01:44:17;;;;;;;31.83;23.02;;;;;;;6.41;100.00;103103.72;6194045;23;20068;-76
2022/03/21 01:46:46;;;;;;;31.17;21.57;;;;;;;6.42;100.00;103113.38;6166496;23;20031;-76
2022/03/21 01:49:18;;;;;;;26.63;20.20;;;;;;;6.42;100.00;103105.50;6207721;23;20021;-76
2022/03/21 01:51:46;;;;;;;26.08;20.85;;;;;;;6.42;100.00;103109.03;6217016;23;20297;-76
2022/03/21 01:57:03;;;;;;;35.10;23.40;;;;;;;6.42;100.00;103108.13;6234223;23;20024;-76
2022/03/21 01:59:33;;;;;;;31.23;22.80;;;;;;;6.42;100.00;103090.69;6178880;23;20342;-76
2022/03/21 02:02:03;;;;;;;33.58;22.20;;;;;;;6.42;100.00;103100.28;6244770;23;20024;-76
2022/03/21 02:04:33;;;;;;;31.27;23.20;;;;;;;6.42;100.00;103105.50;6179188;23;20450;-76
2022/03/21 02:07:01;;;;;;;31.40;21.83;;;;;;;6.43;100.00;103107.34;6219240;23;20442;-76
2022/03/21 02:09:31;;;;;;;31.20;24.08;;;;;;;6.42;100.00;103098.53;6213681;23;20016;-76
2022/03/21 02:11:59;;;;;;;31.42;23.42;;;;;;;6.44;100.00;103093.41;6222221;23;20024;-76
2022/03/21 02:14:28;;;;;;;32.00;23.23;;;;;;;6.43;100.00;103096.84;6131505;23;20354;-76
2022/03/21 02:16:57;;;;;;;32.80;24.25;;;;;;;6.43;100.00;103102.09;6181758;23;20024;-76
2022/03/21 02:19:30;;;;;;;31.45;23.48;;;;;;;6.44;100.00;103098.63;6215353;23;20027;-76
2022/03/21 02:22:18;;;;;;;31.90;23.73;;;;;;;6.43;100.00;103102.09;6207458;23;20020;-76
2022/03/21 02:24:46;;;;;;;36.10;23.67;;;;;;;6.42;100.00;103106.41;6189801;23;20051;-76
2022/03/21 02:27:17;;;;;;;31.15;23.83;;;;;;;6.42;100.00;103105.50;6198852;23;20028;-76
2022/03/21 02:29:48;;;;;;;33.67;25.25;;;;;;;6.42;100.00;103102.91;6214927;23;20043;-76
2022/03/21 02:32:18;;;;;;;33.22;25.40;;;;;;;6.41;100.00;103107.25;6191746;23;20012;-76
2022/03/21 02:34:50;;;;;;;35.78;25.13;;;;;;;6.39;100.00;103105.31;6215375;23;20229;-76
2022/03/21 02:37:20;;;;;;;32.05;25.02;;;;;;;6.39;100.00;103106.25;6217877;23;20027;-76
2022/03/21 02:39:49;;;;;;;34.90;25.92;;;;;;;6.38;100.00;103108.78;6239470;23;20361;-76
2022/03/21 02:42:18;;;;;;;36.45;25.65;;;;;;;6.35;100.00;103098.13;6230140;23;20342;-76
2022/03/21 02:44:46;;;;;;;37.35;26.23;;;;;;;6.34;100.00;103112.03;6240016;23;20252;-76
2022/03/21 02:47:15;;;;;;;39.10;27.60;;;;;;;6.31;100.00;103102.28;6241547;23;20023;-76
2022/03/21 02:49:45;;;;;;;38.05;27.60;;;;;;;6.28;100.00;103112.59;6179676;23;20035;-76
2022/03/21 02:52:16;;;;;;;35.70;26.47;;;;;;;6.27;100.00;103102.94;6218379;23;20020;-76
2022/03/21 02:54:45;;;;;;;36.42;24.88;;;;;;;6.24;100.00;103111.53;6204188;23;20153;-76
2022/03/21 02:57:14;;;;;;;37.03;26.73;;;;;;;6.21;100.00;103105.19;6192891;23;20024;-76
2022/03/21 02:59:42;;;;;;;31.90;24.40;;;;;;;6.19;100.00;103099.88;6179238;23;20218;-76
2022/03/21 03:02:11;;;;;;;28.20;22.88;;;;;;;6.18;100.00;103097.16;6242387;23;20481;-76
2022/03/21 03:04:39;;;;;;;42.45;24.58;;;;;;;6.15;100.00;103105.75;6213424;23;20020;-76
2022/03/21 03:07:08;;;;;;;34.50;24.67;;;;;;;6.12;100.00;103105.56;6193093;23;20023;-76
2022/03/21 03:09:37;;;;;;;31.00;21.80;;;;;;;6.07;100.00;103098.25;6128503;23;20016;-76
2022/03/21 03:12:06;;;;;;;34.67;24.75;;;;;;;6.03;100.00;103105.03;6193270;23;20020;-76
2022/03/21 03:14:35;;;;;;;31.55;23.10;;;;;;;5.99;100.00;103103.06;6201223;23;20560;-76
2022/03/21 03:17:03;;;;;;;29.08;21.83;;;;;;;5.95;100.00;103107.19;6216479;23;20016;-76
2022/03/21 03:19:32;;;;;;;29.05;22.52;;;;;;;5.90;100.00;103102.47;6188790;23;20024;-76
2022/03/21 03:22:01;;;;;;;29.95;21.60;;;;;;;5.84;100.00;103101.34;6242679;23;20020;-76
2022/03/21 03:24:32;;;;;;;29.50;21.75;;;;;;;5.79;100.00;103099.25;6203875;23;20031;-76
2022/03/21 03:27:01;;;;;;;29.20;22.55;;;;;;;5.75;100.00;103099.91;6217553;23;20067;-76
2022/03/21 03:29:29;;;;;;;31.52;21.85;;;;;;;5.72;100.00;103103.22;6143696;23;20024;-76
2022/03/21 03:32:00;;;;;;;27.80;21.08;;;;;;;5.68;100.00;103103.84;6207907;23;20039;-76
2022/03/21 03:34:31;;;;;;;27.33;20.92;;;;;;;5.62;100.00;103101.75;6189704;23;20027;-76
2022/03/21 03:37:00;;;;;;;30.33;20.92;;;;;;;5.59;100.00;103108.53;6184305;23;20480;-76
2022/03/21 03:39:29;;;;;;;28.67;21.00;;;;;;;5.53;100.00;103108.16;6230498;23;20023;-76
2022/03/21 03:41:57;;;;;;;31.40;21.77;;;;;;;5.47;100.00;103121.78;6193105;23;20019;-76
2022/03/21 03:44:26;;;;;;;27.98;20.08;;;;;;;5.43;100.00;103118.06;6191228;23;20068;-78
2022/03/21 03:46:55;;;;;;;32.28;21.17;;;;;;;5.37;100.00;103109.84;6180056;23;20027;-76
2022/03/21 03:49:23;;;;;;;29.88;21.15;;;;;;;5.34;100.00;103114.00;6165530;23;20019;-76
2022/03/21 03:51:52;;;;;;;32.03;22.13;;;;;;;5.30;100.00;103115.53;6214505;23;20016;-76
2022/03/21 03:54:20;;;;;;;28.65;21.15;;;;;;;5.26;100.00;103110.91;6154679;23;20024;-76
2022/03/21 03:56:49;;;;;;;28.58;21.45;;;;;;;5.23;100.00;103115.94;6214629;23;20401;-76
2022/03/21 03:59:18;;;;;;;30.77;21.42;;;;;;;5.18;100.00;103107.84;6204331;23;20020;-75
2022/03/21 04:01:48;;;;;;;32.25;22.40;;;;;;;5.16;100.00;103106.84;6202291;23;20016;-77
2022/03/21 04:04:19;;;;;;;28.80;21.05;;;;;;;5.11;100.00;103113.50;6216200;23;20020;-77
2022/03/21 04:06:47;;;;;;;29.13;20.85;;;;;;;5.06;100.00;103107.97;6164724;23;20312;-76
2022/03/21 04:09:16;;;;;;;33.22;22.27;;;;;;;5.03;100.00;103115.63;6207724;23;20357;-77
2022/03/21 04:11:44;;;;;;;31.85;22.67;;;;;;;4.99;100.00;103121.47;6215854;23;20012;-75
2022/03/21 04:14:12;;;;;;;29.20;20.40;;;;;;;4.94;100.00;103125.50;6158330;23;20020;-77
2022/03/21 04:16:44;;;;;;;29.13;21.77;;;;;;;4.92;100.00;103126.22;6239153;23;20150;-77
2022/03/21 04:19:13;;;;;;;33.85;21.30;;;;;;;4.86;100.00;103126.75;6182943;23;20020;-77
2022/03/21 04:21:42;;;;;;;33.95;22.42;;;;;;;4.80;100.00;103134.16;6239359;23;20130;-77
2022/03/21 04:24:11;;;;;;;35.17;22.40;;;;;;;4.73;100.00;103130.28;6186340;23;20020;-77
2022/03/21 04:26:39;;;;;;;33.55;22.33;;;;;;;4.65;100.00;103129.78;6189530;23;20484;-77
2022/03/21 04:29:07;;;;;;;31.25;22.17;;;;;;;4.59;100.00;103129.38;6193032;23;20028;-77
2022/03/21 04:31:36;;;;;;;33.50;21.48;;;;;;;4.54;100.00;103133.44;6214533;23;20377;-77
2022/03/21 04:34:05;;;;;;;30.27;19.83;;;;;;;4.47;100.00;103137.34;6196510;23;20331;-77
2022/03/21 04:36:34;;;;;;;30.95;21.35;;;;;;;4.42;100.00;103127.41;6239415;23;20141;-77
2022/03/21 04:39:03;;;;;;;31.98;22.83;;;;;;;4.36;100.00;103132.22;6193995;23;20027;-76
2022/03/21 04:41:32;;;;;;;34.20;22.23;;;;;;;4.29;100.00;103141.34;6240973;23;20023;-77
2022/03/21 04:44:00;;;;;;;32.38;20.80;;;;;;;4.23;100.00;103154.00;6158599;23;20024;-77
2022/03/21 04:46:28;;;;;;;31.15;21.65;;;;;;;4.15;100.00;103150.88;6206385;23;20450;-77
2022/03/21 04:48:57;;;;;;;33.13;20.45;;;;;;;4.08;100.00;103148.66;6196654;23;20320;-77
2022/03/21 04:51:25;;;;;;;29.60;20.33;;;;;;;4.02;100.00;103150.88;6215453;23;20016;-77
2022/03/21 04:53:54;;;;;;;35.08;21.42;;;;;;;3.96;100.00;103153.09;6243551;23;20027;-76
2022/03/21 04:56:22;;;;;;;38.65;22.15;;;;;;;3.90;100.00;103158.78;6243370;23;20020;-76
2022/03/21 04:58:51;;;;;;;31.02;21.73;;;;;;;3.82;100.00;103155.66;6241069;23;20039;-77
2022/03/21 05:01:20;;;;;;;31.27;21.08;;;;;;;3.76;100.00;103157.84;6157147;23;20020;-75
2022/03/21 05:03:51;;;;;;;30.63;21.05;;;;;;;3.72;100.00;103168.84;6230907;23;20023;-75
2022/03/21 05:06:19;;;;;;;33.17;20.05;;;;;;;3.67;100.00;103165.94;6203923;23;20013;-75
2022/03/21 05:08:50;;;;;;;28.02;20.88;;;;;;;3.63;100.00;103163.00;6181408;23;20151;-75
2022/03/21 05:11:19;;;;;;;33.97;21.70;;;;;;;3.57;100.00;103163.50;6218278;23;20020;-75
2022/03/21 05:13:47;;;;;;;29.52;21.42;;;;;;;3.53;100.00;103171.00;6215265;23;20623;-77
2022/03/21 05:16:16;;;;;;;30.15;20.90;;;;;;;3.47;100.00;103175.00;6183574;23;20032;-75
2022/03/21 05:18:46;;;;;;;34.38;22.05;;;;;;;3.42;100.00;103173.78;6191197;23;20221;-75
2022/03/21 05:21:15;;;;;;;32.42;22.67;;;;;;;3.38;100.00;103166.53;6155449;23;20016;-75
2022/03/21 05:32:05;;;;;;;29.08;20.95;;;;;;;3.22;100.00;103174.09;6244335;23;20016;-76
2022/03/21 05:37:21;;;;;;;29.38;20.98;;;;;;;3.14;100.00;103181.38;6207705;23;20020;-75
2022/03/21 05:42:36;;;;;;;31.60;22.02;;;;;;;3.07;100.00;103182.63;6228932;23;20241;-75
2022/03/21 05:45:05;;;;;;;33.53;22.80;;;;;;;3.05;100.00;103189.44;6134079;23;20024;-75
2022/03/21 05:48:50;;;;;;;34.45;23.05;;;;;;;3.03;100.00;103185.81;6179058;23;20024;-75
2022/03/21 05:50:22;;;;;;;33.40;21.77;;;;;;;3.00;100.00;103182.09;6220080;23;20012;-75
2022/03/21 05:52:51;;;;;;;38.65;24.02;;;;;;;2.97;100.00;103177.56;6204890;23;20178;-75
2022/03/21 05:55:19;;;;;;;34.70;22.77;;;;;;;2.97;100.00;103182.78;6167238;23;20331;-75
2022/03/21 05:57:48;;;;;;;33.95;22.23;;;;;;;2.96;100.00;103182.66;6214866;23;20039;-75
2022/03/21 06:00:22;;;;;;;32.85;22.20;;;;;;;2.93;100.00;103181.66;6218107;23;20020;-75
2022/03/21 06:02:52;;;;;;;36.90;24.13;;;;;;;2.95;100.00;103183.44;6216612;23;20560;-75
2022/03/21 06:05:22;;;;;;;33.80;22.98;;;;;;;2.93;100.00;103181.66;6232303;23;20031;-75
2022/03/21 06:07:51;;;;;;;41.47;24.52;;;;;;;2.95;100.00;103183.44;6193792;23;20146;-75
2022/03/21 06:10:20;;;;;;;35.60;23.90;;;;;;;2.95;100.00;103186.97;6207026;23;20116;-75
2022/03/21 06:12:50;;;;;;;36.78;23.02;;;;;;;2.98;100.00;103192.38;6212656;23;20043;-75
2022/03/21 06:15:19;;;;;;;39.53;25.92;;;;;;;3.02;100.00;103191.81;6217853;23;20047;-75
2022/03/21 06:17:47;;;;;;;35.47;23.40;;;;;;;3.06;100.00;103199.06;6180882;23;20250;-76
2022/03/21 06:20:19;;;;;;;43.53;26.88;;;;;;;3.11;100.00;103196.78;6234643;23;20046;-76
2022/03/21 06:22:48;;;;;;;37.95;24.63;;;;;;;3.15;100.00;103193.59;6215651;23;20394;-76
2022/03/21 06:25:16;;;;;;;39.88;25.40;;;;;;;3.20;100.00;103199.16;6194792;23;20457;-76
2022/03/21 06:27:45;;;;;;;43.08;26.42;;;;;;;3.23;100.00;103189.84;6175464;23;20028;-76
2022/03/21 06:30:14;;;;;;;33.85;25.20;;;;;;;3.30;100.00;103193.78;6245202;23;20020;-76
2022/03/21 06:32:49;;;;;;;42.53;25.90;;;;;;;3.37;100.00;103196.03;6207041;23;20012;-77
2022/03/21 06:35:17;;;;;;;38.13;24.40;;;;;;;3.44;100.00;103200.88;6237454;23;20020;-77
2022/03/21 06:37:46;;;;;;;39.25;23.60;;;;;;;3.54;100.00;103201.50;6235216;23;20016;-77
2022/03/21 06:40:20;;;;;;;33.95;23.30;;;;;;;3.64;100.00;103211.78;6160988;23;20028;-75
2022/03/21 06:42:51;;;;;;;30.52;21.27;;;;;;;3.75;100.00;103209.91;6188272;23;20035;-77
2022/03/21 06:45:23;;;;;;;37.33;22.30;;;;;;;3.87;100.00;103215.97;6151208;23;20020;-75
2022/03/21 06:47:51;;;;;;;34.63;21.35;;;;;;;3.98;100.00;103225.41;6168877;23;20450;-75
2022/03/21 06:50:20;;;;;;;31.45;22.30;;;;;;;4.12;100.00;103218.56;6202024;23;20331;-75
2022/03/21 06:52:49;;;;;;;33.85;20.60;;;;;;;4.33;100.00;103212.94;6156091;23;20324;-75
2022/03/21 06:55:26;;;;;;;31.77;21.17;;;;;;;4.64;100.00;103219.38;6221074;23;20642;-76
2022/03/21 06:57:55;;;;;;;35.78;22.42;;;;;;;5.00;100.00;103216.44;6216464;23;20020;-76
2022/03/21 07:00:24;;;;;;;32.33;21.45;;;;;;;5.26;100.00;103213.78;6175885;23;20472;-76
2022/03/21 07:02:52;;;;;;;27.05;20.75;;;;;;;5.61;100.00;103216.75;6243099;23;20012;-76
2022/03/21 07:05:21;;;;;;;27.77;21.48;;;;;;;6.03;100.00;103215.88;6197749;23;20237;-76
2022/03/21 07:07:52;;;;;;;32.20;21.05;;;;;;;6.61;100.00;103207.00;6163852;23;20024;-76
2022/03/21 07:10:20;;;;;;;30.63;20.85;;;;;;;7.00;100.00;103208.34;6188624;23;20020;-76
2022/03/21 07:12:49;;;;;;;31.80;20.30;;;;;;;7.26;100.00;103214.13;6197860;23;20020;-76
2022/03/21 07:15:17;;;;;;;30.55;21.63;;;;;;;7.59;100.00;103212.41;6186228;23;20031;-76
2022/03/21 07:17:45;;;;;;;27.38;19.55;;;;;;;7.95;100.00;103214.28;6190646;23;20735;-76
2022/03/21 07:20:14;;;;;;;28.50;20.30;;;;;;;8.36;100.00;103211.13;6209801;23;20357;-76
2022/03/21 07:22:42;;;;;;;27.13;21.33;;;;;;;8.76;100.00;103213.13;6197140;23;20016;-76
2022/03/21 07:25:11;;;;;;;26.65;20.63;;;;;;;9.14;100.00;103213.16;6210294;23;20327;-76
2022/03/21 07:27:45;;;;;;;29.20;21.35;;;;;;;9.58;100.00;103214.28;6158914;23;20030;-76
2022/03/21 07:30:16;;;;;;;25.52;19.77;;;;;;;9.98;100.00;103210.81;6240806;23;20012;-76
2022/03/21 07:32:45;;;;;;;30.20;20.13;;;;;;;10.24;100.00;103216.28;6232782;23;20039;-75
2022/03/21 07:35:14;;;;;;;24.48;18.50;;;;;;;10.34;100.00;103218.53;6215011;23;20023;-76
2022/03/21 07:37:49;;;;;;;35.95;20.48;;;;;;;10.47;100.00;103223.47;6192601;23;20027;-77
2022/03/21 07:40:19;;;;;;;25.67;21.02;;;;;;;10.59;100.00;103228.34;6210946;23;20035;-76
2022/03/21 07:42:48;;;;;;;25.58;19.25;;;;;;;10.74;100.00;103225.44;6181144;23;20173;-74
2022/03/21 07:48:05;;;;;;;25.45;20.48;;;;;;;11.20;100.00;103227.22;6202730;23;20024;-77
2022/03/21 07:50:33;;;;;;;24.45;20.73;;;;;;;11.38;100.00;103234.06;6178249;23;20023;-77
2022/03/21 07:53:04;;;;;;;22.80;18.83;;;;;;;11.41;100.00;103232.44;6144849;23;20865;-76
2022/03/21 07:55:36;;;;;;;26.70;19.70;;;;;;;11.41;100.00;103232.44;6208264;23;20023;-76
2022/03/21 07:58:04;;;;;;;26.67;19.33;;;;;;;11.42;100.00;103234.25;6193075;23;20031;-76
2022/03/21 08:00:35;;;;;;;27.25;20.98;;;;;;;11.53;100.00;103237.28;6235523;23;20027;-76
2022/03/21 08:03:03;;;;;;;24.83;19.50;;;;;;;11.75;100.00;103241.59;6202375;23;20396;-76
2022/03/21 08:05:32;;;;;;;24.70;18.23;;;;;;;11.96;100.00;103241.50;6239436;23;20016;-76
2022/03/21 08:08:00;;;;;;;21.30;17.77;;;;;;;12.14;100.00;103240.38;6185058;23;20035;-76
2022/03/21 08:10:29;;;;;;;24.40;17.42;;;;;;;12.28;100.00;103244.38;6207959;23;20123;-76
2022/03/21 08:12:57;;;;;;;21.15;17.20;;;;;;;12.46;100.00;103246.78;6195860;23;20158;-76
2022/03/21 08:15:26;;;;;;;23.42;18.23;;;;;;;12.60;100.00;103239.28;6166925;23;20066;-76
2022/03/21 08:18:00;;;;;;;23.95;17.48;;;;;;;12.72;100.00;103239.72;6175501;23;20020;-76
2022/03/21 08:20:33;;;;;;;26.27;18.10;;;;;;;12.87;100.00;103239.28;6235138;23;20027;-76
2022/03/21 08:23:06;;;;;;;23.17;18.08;;;;;;;12.99;100.00;103244.09;6178788;23;20446;-76
2022/03/21 08:25:36;;;;;;;20.67;16.65;;;;;;;13.08;100.00;103241.72;6218996;23;20028;-76
2022/03/21 08:28:06;;;;;;;23.65;17.55;;;;;;;13.18;100.00;103243.78;6233021;23;20354;-76
2022/03/21 08:30:36;;;;;;;20.38;15.77;;;;;;;13.25;100.00;103245.78;6130536;23;20031;-76
2022/03/21 08:33:07;;;;;;;20.17;16.75;;;;;;;13.32;100.00;103244.22;6170228;23;20327;-76
2022/03/21 08:35:40;;;;;;;18.63;15.52;;;;;;;13.33;98.57;103243.41;6168368;23;20016;-76
2022/03/21 08:38:10;;;;;;;19.83;16.98;;;;;;;13.33;97.89;103246.03;6236204;23;20028;-76
2022/03/21 08:40:38;;;;;;;21.45;16.00;;;;;;;13.32;97.02;103246.00;6103644;23;1445558;-75
2022/03/21 08:43:07;;;;;;;19.38;17.02;;;;;;;13.37;95.82;103241.75;6206939;23;20024;-76
2022/03/21 08:45:36;;;;;;;20.58;15.93;;;;;;;13.41;95.87;103248.91;6222225;23;20009;-76
2022/03/21 08:48:05;;;;;;;21.17;15.90;;;;;;;13.45;94.67;103251.69;6237461;23;20024;-76
2022/03/21 08:50:34;;;;;;;20.55;18.40;;;;;;;13.56;94.45;103244.06;6190956;23;20027;-76
2022/03/21 08:53:05;;;;;;;22.98;16.65;;;;;;;13.62;92.37;103256.59;6213065;23;20024;-76
2022/03/21 08:55:34;;;;;;;22.23;16.20;;;;;;;13.61;91.04;103250.41;6227426;23;20484;-76
2022/03/21 08:58:03;;;;;;;19.35;15.52;;;;;;;13.59;89.77;103246.81;6235525;23;20016;-76
2022/03/21 09:00:31;;;;;;;21.60;16.58;;;;;;;13.59;89.21;103248.53;6212990;23;20024;-75
2022/03/21 09:03:00;;;;;;;18.50;16.20;;;;;;;13.51;87.54;103250.09;6187249;23;20027;-75
2022/03/21 09:05:29;;;;;;;22.50;17.08;;;;;;;13.44;87.56;103247.25;6192860;23;20024;-76
2022/03/21 09:07:57;;;;;;;26.48;16.50;;;;;;;13.41;86.89;103251.56;6175245;23;20101;-76
2022/03/21 09:10:26;;;;;;;20.48;16.23;;;;;;;13.39;86.27;103245.31;6209178;23;20468;-75
2022/03/21 09:12:54;;;;;;;19.80;15.63;;;;;;;13.30;85.15;103245.03;6201879;23;20028;-75
2022/03/21 09:15:25;;;;;;;20.75;15.65;;;;;;;13.26;84.91;103246.66;6192742;23;20023;-76
2022/03/21 09:17:58;;;;;;;19.75;16.27;;;;;;;13.18;83.49;103240.25;6236680;23;20339;-75
2022/03/21 09:20:26;;;;;;;24.02;16.73;;;;;;;13.04;83.00;103247.75;6193487;23;20405;-76
2022/03/21 09:22:57;;;;;;;22.13;15.43;;;;;;;12.87;82.94;103244.56;6147974;23;20374;-75
2022/03/21 09:25:25;;;;;;;;;;;;;;;12.72;86.53;103237.06;6234349;23;20020;-75
2022/03/21 09:27:54;;;;;;;23.17;15.77;;;;;;;12.59;83.80;103245.41;6150088;23;19942;-75
2022/03/21 09:30:23;;;;;;;21.30;15.38;;;;;;;12.51;83.44;103250.44;6168884;23;20028;-75
2022/03/21 09:32:52;;;;;;;23.05;15.05;;;;;;;12.45;84.36;103247.59;6230062;23;20138;-76
2022/03/21 09:35:21;;;;;;;20.95;15.88;;;;;;;12.36;83.92;103250.84;6233336;23;20295;-75
2022/03/21 09:37:49;;;;;;;25.80;15.88;;;;;;;12.32;85.62;103256.88;6181865;23;20244;-75
2022/03/21 09:40:20;;;;;;;23.40;16.48;;;;;;;12.28;85.50;103252.31;6176522;23;20035;-76
2022/03/21 09:42:48;;;;;;;;;;;;;;;12.29;88.11;103248.84;6230205;23;20208;-76
2022/03/21 09:45:16;;;;;;;21.92;16.80;;;;;;;12.25;86.05;103252.22;6207091;23;20276;-76
2022/03/21 09:50:35;;;;;;;20.45;16.58;;;;;;;12.26;86.16;103249.63;6227389;23;20020;-77
2022/03/21 09:53:04;;;;;;;23.55;17.00;;;;;;;12.31;86.70;103244.50;6238447;23;20024;-77
2022/03/21 09:55:34;;;;;;;21.23;15.60;;;;;;;12.32;86.14;103248.94;6204985;23;20027;-76
2022/03/21 09:58:03;;;;;;;27.08;18.40;;;;;;;12.34;86.93;103251.63;6212224;23;20020;-76
2022/03/21 10:00:34;;;;;;;23.67;18.75;;;;;;;12.36;87.39;103248.22;6194705;23;20024;-76
2022/03/21 10:03:03;;;;;;;23.95;17.15;;;;;;;12.41;87.43;103251.00;6186177;23;20031;-76
2022/03/21 10:05:43;;;;;;;27.20;18.30;;;;;;;12.45;87.11;103250.25;6207958;23;20429;-76
2022/03/21 10:08:23;;;;;;;24.15;17.25;;;;;;;12.43;86.53;103247.56;6233086;23;20019;-76
2022/03/21 10:10:56;;;;;;;27.02;17.63;;;;;;;12.45;87.09;103242.31;6209945;23;20020;-75
2022/03/21 10:13:27;;;;;;;21.38;17.20;;;;;;;12.47;86.48;103246.81;6206177;23;20024;-75
2022/03/21 10:16:18;;;;;;;26.52;18.25;;;;;;;12.45;85.90;103242.31;6156975;23;20020;-75
2022/03/21 10:18:58;;;;;;;27.02;17.88;;;;;;;12.40;86.40;103242.19;6183117;23;20594;-75
2022/03/21 10:21:28;;;;;;;24.48;18.10;;;;;;;12.43;87.33;103244.91;6171729;23;20020;-75
2022/03/21 10:24:05;;;;;;;24.05;18.35;;;;;;;12.50;86.39;103239.84;6201138;23;20020;-75
2022/03/21 10:26:44;;;;;;;23.40;18.65;;;;;;;12.55;86.12;103236.50;6178537;23;20016;-75
2022/03/21 10:29:17;;;;;;;26.25;18.52;;;;;;;12.63;86.57;103236.75;6177071;23;20459;-75
2022/03/21 10:31:48;;;;;;;25.83;18.23;;;;;;;12.69;85.61;103231.66;6225009;23;20019;-75
2022/03/21 10:34:19;;;;;;;27.05;18.77;;;;;;;12.73;84.62;103232.66;6225724;23;20046;-75
2022/03/21 10:37:04;;;;;;;28.58;19.98;;;;;;;12.79;85.08;103235.50;6207622;23;20293;-75
2022/03/21 10:39:38;;;;;;;24.52;18.70;;;;;;;12.82;83.71;103236.50;6167133;23;20433;-75
2022/03/21 10:42:09;;;;;;;23.55;18.10;;;;;;;12.90;83.79;103244.69;6229396;23;20028;-75
2022/03/21 10:44:38;;;;;;;24.92;19.27;;;;;;;12.92;82.45;103240.34;6221665;23;20035;-76
2022/03/21 10:47:08;;;;;;;25.67;18.25;;;;;;;12.98;82.84;103240.50;6236886;23;20489;-75
2022/03/21 10:49:41;;;;;;;27.52;19.05;;;;;;;13.07;83.24;103247.84;6206663;23;20020;-75
2022/03/21 10:52:18;;;;;;;28.15;19.75;;;;;;;13.08;82.23;103236.44;6206594;23;20477;-74
2022/03/21 10:54:48;;;;;;;32.88;22.88;;;;;;;13.11;83.06;103239.16;6201980;23;20054;-76
2022/03/21 10:57:32;;;;;;;;;;;;;;;13.16;80.57;103234.03;6186860;23;20015;-75
2022/03/21 11:00:28;;;;;;;31.65;20.17;;;;;;;13.16;81.45;103234.91;6164317;23;19919;-75
2022/03/21 11:03:05;;;;;;;29.10;19.67;;;;;;;13.23;82.86;103235.97;6181522;23;20047;-75
2022/03/21 11:05:41;;;;;;;29.45;19.40;;;;;;;13.30;81.18;103235.34;6223651;23;20016;-75
2022/03/21 11:08:12;;;;;;;27.65;19.05;;;;;;;13.38;81.14;103236.50;6186998;23;20020;-75
2022/03/21 11:10:42;;;;;;;28.00;18.63;;;;;;;13.40;81.57;103239.16;6165483;23;20243;-75
2022/03/21 11:13:11;;;;;;;27.58;19.23;;;;;;;13.40;82.56;103234.78;6226576;23;20023;-76
2022/03/21 11:15:41;;;;;;;24.80;19.45;;;;;;;13.45;82.33;103234.91;6195746;23;20501;-75
2022/03/21 11:18:13;;;;;;;24.85;18.98;;;;;;;13.44;83.37;103233.13;6225791;23;20532;-75
2022/03/21 11:20:45;;;;;;;28.38;19.90;;;;;;;13.44;82.57;103236.66;6182747;23;20027;-75
2022/03/21 11:23:18;;;;;;;32.00;20.90;;;;;;;13.45;83.30;103227.84;6210950;23;20024;-76
2022/03/21 11:25:55;;;;;;;27.02;18.52;;;;;;;13.47;81.35;103238.50;6202137;23;20020;-74
2022/03/21 11:28:31;;;;;;;25.10;18.55;;;;;;;13.49;82.04;103234.13;6175789;23;20016;-76
2022/03/21 11:31:31;;;;;;;24.92;17.52;;;;;;;13.50;81.47;103235.94;6225509;23;20028;-75
2022/03/21 11:34:26;;;;;;;25.77;19.25;;;;;;;13.60;82.54;103247.72;6186523;23;20023;-76
2022/03/21 11:36:57;;;;;;;26.48;19.92;;;;;;;13.63;81.46;103235.44;6184155;23;20016;-76
2022/03/21 11:39:27;;;;;;;31.90;21.65;;;;;;;13.67;80.06;103238.16;6171663;23;20369;-77
2022/03/21 11:42:00;;;;;;;25.67;19.47;;;;;;;13.63;79.03;103243.41;6193380;23;20221;-76
2022/03/21 11:44:29;;;;;;;26.40;21.00;;;;;;;13.64;79.13;103229.28;6175425;23;20524;-77
2022/03/21 11:47:23;;;;;;;32.72;22.35;;;;;;;13.71;77.50;103242.72;6144947;23;20020;-77